Time;durP1;ratioP1;P1;durP2;ratioP2;P2;SDS_P1;SDS_P2;PMS_P1;PMS_P2;Temp;Humidity;BMP_temperature;BMP_pressure;BME280_temperature;BME280_humidity;BME280_pressure;Samples;Min_cycle;Max_cycle;Signal;HPM_P1;HPM_P2
2021/12/25 00:02:21;;;;;;;5.97;5.67;;;;;;;-7.21;87.48;101141.09;5055603;28;20459;-41
2021/12/25 00:04:49;;;;;;;7.00;6.40;;;;;;;-7.23;88.04;101148.13;5055768;28;20439;-44
2021/12/25 00:07:17;;;;;;;7.37;6.97;;;;;;;-7.24;88.16;101143.84;5055666;28;20465;-45
2021/12/25 00:09:44;;;;;;;7.80;7.00;;;;;;;-7.17;88.58;101154.75;5055528;28;20510;-45
2021/12/25 00:12:12;;;;;;;6.80;6.30;;;;;;;-7.12;88.75;101163.13;5054886;28;20879;-44
2021/12/25 00:14:40;;;;;;;7.20;6.80;;;;;;;-7.07;89.00;101161.13;5055553;28;20526;-44
2021/12/25 00:17:09;;;;;;;6.27;5.97;;;;;;;-7.04;89.21;101161.84;5055146;28;20435;-45
2021/12/25 00:19:36;;;;;;;7.07;6.50;;;;;;;-7.09;87.93;101157.78;5055558;28;20454;-45
2021/12/25 00:22:04;;;;;;;6.80;6.27;;;;;;;-7.21;86.45;101169.59;5054854;28;20554;-46
2021/12/25 00:24:32;;;;;;;6.80;6.20;;;;;;;-7.35;85.92;101169.44;5055392;28;20440;-45
2021/12/25 00:27:05;;;;;;;8.47;6.37;;;;;;;-7.42;85.79;101175.78;5055179;28;20435;-44
2021/12/25 00:30:07;;;;;;;7.43;5.90;;;;;;;-7.56;85.68;101181.63;5055296;28;21019;-42
2021/12/25 00:32:47;;;;;;;7.23;6.40;;;;;;;-7.65;85.76;101182.06;5054673;28;20473;-45
2021/12/25 00:35:16;;;;;;;6.33;5.93;;;;;;;-7.70;86.17;101181.41;5055241;28;20435;-46
2021/12/25 00:37:44;;;;;;;7.47;7.07;;;;;;;-7.73;86.26;101186.72;5055298;28;20873;-44
2021/12/25 00:40:12;;;;;;;7.20;6.80;;;;;;;-7.74;86.58;101192.00;5054966;28;20992;-44
2021/12/25 00:42:40;;;;;;;7.10;6.50;;;;;;;-7.74;87.12;101189.41;5054231;28;20558;-44
2021/12/25 00:45:09;;;;;;;5.80;5.53;;;;;;;-7.76;86.78;101197.22;5055268;28;20433;-45
2021/12/25 00:47:38;;;;;;;7.30;6.53;;;;;;;-7.73;87.63;101198.81;5054760;28;20442;-44
2021/12/25 00:50:07;;;;;;;6.17;5.87;;;;;;;-7.73;87.40;101199.69;5054987;28;20458;-45
2021/12/25 00:52:35;;;;;;;6.67;6.37;;;;;;;-7.76;87.07;101202.41;5053971;28;20543;-44
2021/12/25 00:55:05;;;;;;;6.43;6.10;;;;;;;-7.85;86.83;101203.66;5054845;28;20437;-45
2021/12/25 00:57:32;;;;;;;6.37;5.83;;;;;;;-7.90;86.67;101207.38;5054521;28;20435;-48
2021/12/25 01:00:00;;;;;;;6.90;6.43;;;;;;;-7.95;86.62;101215.34;5054270;28;20497;-42
2021/12/25 01:02:27;;;;;;;6.67;6.20;;;;;;;-8.06;86.23;101209.78;5053760;28;20467;-42
2021/12/25 01:04:57;;;;;;;6.90;6.40;;;;;;;-8.07;86.55;101217.63;5053143;28;20823;-43
2021/12/25 01:07:24;;;;;;;6.77;6.23;;;;;;;-8.13;86.98;101220.50;5054484;28;20431;-47
2021/12/25 01:09:52;;;;;;;6.77;6.23;;;;;;;-8.15;87.51;101220.53;5054322;28;20461;-42
2021/12/25 01:12:20;;;;;;;6.10;5.70;;;;;;;-8.18;87.88;101225.84;5053744;28;20463;-45
2021/12/25 01:14:52;;;;;;;6.33;5.80;;;;;;;-8.18;87.78;101225.03;5053996;28;20438;-44
2021/12/25 01:20:39;;;;;;;5.80;5.37;;;;;;;-8.19;88.68;101225.94;5024088;28;20466;-42
2021/12/25 01:26:06;;;;;;;5.20;4.70;;;;;;;-7.91;91.82;101235.00;5034371;28;20435;-44
2021/12/25 01:31:37;;;;;;;5.50;5.10;;;;;;;-7.54;89.36;101234.19;4991890;28;20460;-43
2021/12/25 01:34:50;;;;;;;5.37;5.07;;;;;;;-7.41;88.34;101235.31;5026280;28;20458;-43
2021/12/25 01:37:20;;;;;;;5.43;5.13;;;;;;;-7.32;86.90;101241.81;5034175;28;20447;-50
2021/12/25 01:39:56;;;;;;;5.20;4.90;;;;;;;-7.24;86.31;101244.03;5034050;28;20436;-45
2021/12/25 01:47:55;;;;;;;6.57;6.07;;;;;;;-7.14;84.37;101250.50;5034118;28;20468;-47
2021/12/25 01:50:25;;;;;;;4.87;4.67;;;;;;;-7.16;84.11;101249.69;5034709;28;20448;-43
2021/12/25 01:52:56;;;;;;;5.00;4.70;;;;;;;-7.18;82.14;101246.34;5033737;28;20470;-48
2021/12/25 01:55:25;;;;;;;4.90;4.60;;;;;;;-7.20;78.81;101250.78;5034199;28;20435;-46
2021/12/25 01:57:54;;;;;;;5.57;5.10;;;;;;;-7.20;78.39;101243.00;5034112;28;20450;-46
2021/12/25 02:00:27;;;;;;;4.97;4.67;;;;;;;-7.21;77.76;101249.94;5034005;28;20456;-42
2021/12/25 02:02:55;;;;;;;4.87;4.67;;;;;;;-7.22;77.10;101262.94;5033534;28;20465;-42
2021/12/25 02:05:24;;;;;;;5.57;5.17;;;;;;;-7.18;76.66;101269.69;5033890;28;20463;-43
2021/12/25 02:08:13;;;;;;;5.30;5.00;;;;;;;-7.15;77.13;101267.78;5034232;28;20440;-43
2021/12/25 02:10:41;;;;;;;5.67;5.43;;;;;;;-7.16;77.21;101266.09;5033847;28;20544;-44
2021/12/25 02:13:11;;;;;;;5.17;4.87;;;;;;;-7.16;77.54;101270.44;5033785;28;20890;-45
2021/12/25 02:15:43;;;;;;;5.67;5.37;;;;;;;-7.18;77.71;101274.84;5034443;28;20474;-43
2021/12/25 02:18:15;;;;;;;5.27;4.90;;;;;;;-7.21;77.62;101273.25;5053788;28;20442;-44
2021/12/25 02:20:51;;;;;;;4.73;4.63;;;;;;;-7.26;78.27;101264.84;5053879;28;20455;-43
2021/12/25 02:23:22;;;;;;;5.40;4.90;;;;;;;-7.26;78.42;101270.03;5052898;28;21004;-45
2021/12/25 02:25:54;;;;;;;5.20;4.80;;;;;;;-7.26;78.68;101264.03;5053846;28;20424;-42
2021/12/25 02:28:22;;;;;;;5.00;4.70;;;;;;;-7.24;78.38;101267.38;5053591;28;20534;-45
2021/12/25 02:30:53;;;;;;;5.83;5.23;;;;;;;-7.24;78.11;101275.13;5053493;28;20447;-44
2021/12/25 02:33:21;;;;;;;6.57;5.87;;;;;;;-7.27;78.25;101270.94;5052941;28;20463;-47
2021/12/25 02:35:50;;;;;;;6.80;5.30;;;;;;;-7.32;78.04;101276.31;5053548;28;20527;-46
2021/12/25 02:38:18;;;;;;;5.00;4.80;;;;;;;-7.39;78.04;101276.69;5053735;28;20441;-48
2021/12/25 02:40:45;;;;;;;5.93;5.63;;;;;;;-7.43;78.62;101281.16;5053218;28;20972;-45
2021/12/25 02:43:13;;;;;;;4.97;4.77;;;;;;;-7.49;78.85;101283.19;5052617;28;20479;-45
2021/12/25 02:45:41;;;;;;;5.80;5.40;;;;;;;-7.53;79.21;101287.69;5053792;28;20530;-43
2021/12/25 02:48:14;;;;;;;5.97;4.13;;;;;;;-7.50;79.88;101291.88;5052898;28;20447;-45
2021/12/25 02:50:42;;;;;;;5.03;4.63;;;;;;;-7.44;79.87;101297.63;5053442;28;20443;-48
2021/12/25 02:53:12;;;;;;;5.23;4.73;;;;;;;-7.44;79.71;101296.78;5052995;28;20467;-49
2021/12/25 02:55:41;;;;;;;6.87;4.40;;;;;;;-7.48;79.05;101296.09;5053538;28;20461;-48
2021/12/25 02:58:11;;;;;;;4.90;4.60;;;;;;;-7.56;78.46;101303.38;5053188;28;20534;-46
2021/12/25 03:00:42;;;;;;;4.80;4.60;;;;;;;-7.62;78.96;101303.63;5052842;28;20474;-44
2021/12/25 03:03:09;;;;;;;5.13;4.80;;;;;;;-7.69;79.14;101303.94;5052083;28;20574;-45
2021/12/25 03:05:38;;;;;;;4.60;4.50;;;;;;;-7.79;78.90;101310.47;5053378;28;20438;-45
2021/12/25 03:08:07;;;;;;;5.53;5.23;;;;;;;-7.85;79.42;101306.34;5053419;28;20865;-46
2021/12/25 03:10:38;;;;;;;21.93;10.60;;;;;;;-7.96;79.48;101311.16;5053094;28;20455;-44
2021/12/25 03:13:29;;;;;;;10.93;7.30;;;;;;;-8.00;80.23;101322.53;5052324;28;20543;-45
2021/12/25 03:15:57;;;;;;;4.73;4.47;;;;;;;-7.90;81.08;101318.66;5053125;28;20431;-47
2021/12/25 03:18:28;;;;;;;4.70;4.40;;;;;;;-7.77;81.06;101317.25;5052486;28;20493;-47
2021/12/25 03:21:00;;;;;;;4.80;4.20;;;;;;;-7.67;79.38;101313.34;5052831;28;20539;-46
2021/12/25 03:23:29;;;;;;;4.00;3.90;;;;;;;-7.59;78.50;101316.44;5051929;28;20475;-49
2021/12/25 03:26:00;;;;;;;4.17;4.07;;;;;;;-7.51;77.62;101321.28;5052593;28;20536;-49
2021/12/25 03:28:31;;;;;;;5.00;4.70;;;;;;;-7.44;76.62;101312.34;5052765;28;20431;-45
2021/12/25 03:31:01;;;;;;;4.77;4.57;;;;;;;-7.38;76.72;101319.84;5052808;28;20452;-47
2021/12/25 03:33:29;;;;;;;5.10;4.80;;;;;;;-7.37;76.43;101314.56;5052256;28;20464;-46
2021/12/25 03:35:57;;;;;;;5.07;4.87;;;;;;;-7.37;76.53;101319.75;5052810;28;20435;-47
2021/12/25 03:38:27;;;;;;;5.00;4.80;;;;;;;-7.47;75.99;101315.91;5053215;28;20443;-46
2021/12/25 03:40:55;;;;;;;5.60;5.00;;;;;;;-7.53;76.57;101321.34;5052967;28;20459;-45
2021/12/25 03:43:24;;;;;;;4.80;4.70;;;;;;;-7.61;77.23;101320.84;5052705;28;20487;-48
2021/12/25 03:45:52;;;;;;;9.53;5.37;;;;;;;-7.68;77.60;101319.44;5053017;28;20447;-44
2021/12/25 03:48:42;;;;;;;4.93;4.73;;;;;;;-7.78;78.32;101319.88;5052722;28;20466;-46
2021/12/25 03:59:28;;;;;;;4.60;4.30;;;;;;;-8.00;79.89;101318.22;5052433;28;20435;-44
2021/12/25 04:02:00;;;;;;;4.70;4.43;;;;;;;-8.06;79.95;101318.47;5051661;28;20468;-46
2021/12/25 04:04:34;;;;;;;4.80;4.60;;;;;;;-8.14;80.03;101330.91;5052660;28;20446;-46
2021/12/25 04:07:09;;;;;;;4.67;4.37;;;;;;;-8.20;80.55;101331.16;5052132;28;20527;-44
2021/12/25 04:09:39;;;;;;;5.40;5.10;;;;;;;-8.27;80.20;101331.53;5052285;28;20426;-46
2021/12/25 04:12:11;;;;;;;4.70;4.50;;;;;;;-8.38;79.84;101331.94;5052054;28;20473;-45
2021/12/25 04:14:41;;;;;;;4.73;4.43;;;;;;;-8.42;80.91;101326.06;5052651;28;20782;-44
2021/12/25 04:17:08;;;;;;;5.03;4.57;;;;;;;-8.48;80.89;101322.88;5052910;28;20435;-44
2021/12/25 04:19:36;;;;;;;4.70;4.50;;;;;;;-8.53;81.04;101324.81;5052292;28;20431;-46
2021/12/25 04:22:08;;;;;;;4.97;4.67;;;;;;;-8.58;81.18;101312.06;5051693;28;21000;-42
2021/12/25 04:24:39;;;;;;;4.63;4.53;;;;;;;-8.65;81.33;101318.38;5051786;28;20433;-45
2021/12/25 04:27:11;;;;;;;4.60;4.50;;;;;;;-8.71;80.99;101321.22;5052153;28;20438;-43
2021/12/25 04:29:45;;;;;;;4.93;4.63;;;;;;;-8.77;81.29;101324.03;5051867;28;20523;-48
2021/12/25 04:32:43;;;;;;;6.60;5.87;;;;;;;-8.83;81.32;101319.09;5051351;28;20463;-44
2021/12/25 04:49:45;;;;;;;6.07;5.57;;;;;;;-9.34;81.82;101323.66;5055157;28;20424;-47
2021/12/25 05:03:30;;;;;;;5.70;5.20;;;;;;;-9.46;83.92;101337.03;5054176;28;20921;-44
2021/12/25 05:06:00;;;;;;;4.97;4.53;;;;;;;-9.52;84.18;101338.09;5055005;28;20431;-43
2021/12/25 05:08:27;;;;;;;4.57;4.37;;;;;;;-9.55;84.01;101331.31;5054662;28;20947;-46
2021/12/25 05:10:57;;;;;;;5.10;4.67;;;;;;;-9.59;84.00;101337.47;5054998;28;20459;-45
2021/12/25 05:13:24;;;;;;;5.70;4.77;;;;;;;-9.61;84.63;101341.84;5054097;28;20459;-43
2021/12/25 05:15:52;;;;;;;6.60;6.00;;;;;;;-9.65;84.65;101332.56;5054846;28;20480;-45
2021/12/25 05:18:21;;;;;;;5.73;5.17;;;;;;;-9.66;84.49;101338.59;5054548;28;20963;-44
2021/12/25 05:20:49;;;;;;;5.23;4.87;;;;;;;-9.68;85.04;101336.97;5055253;28;20955;-46
2021/12/25 05:23:17;;;;;;;14.03;9.03;;;;;;;-9.71;84.93;101348.25;5054267;28;20510;-45
2021/12/25 05:25:44;;;;;;;47.77;19.47;;;;;;;-9.70;85.05;101352.50;5055117;28;20435;-47
2021/12/25 05:28:14;;;;;;;48.63;21.70;;;;;;;-9.69;85.34;101348.19;5054945;28;20537;-42
2021/12/25 05:30:41;;;;;;;32.23;16.13;;;;;;;-9.69;85.50;101346.44;5054910;28;20523;-44
2021/12/25 05:33:09;;;;;;;8.53;5.97;;;;;;;-9.71;85.51;101350.84;5054435;28;20463;-42
2021/12/25 05:35:38;;;;;;;5.50;5.20;;;;;;;-9.75;85.75;101351.84;5055887;28;20434;-42
2021/12/25 05:38:13;;;;;;;5.17;4.87;;;;;;;-9.75;85.83;101357.00;5055727;28;20444;-45
2021/12/25 05:40:40;;;;;;;7.30;6.60;;;;;;;-9.80;85.57;101350.31;5055609;28;20446;-44
2021/12/25 05:43:08;;;;;;;6.00;5.50;;;;;;;-9.84;85.92;101354.72;5054814;28;20480;-44
2021/12/25 05:45:35;;;;;;;7.83;6.93;;;;;;;-9.87;86.29;101356.56;5055165;28;20438;-43
2021/12/25 05:48:04;;;;;;;5.93;5.43;;;;;;;-9.90;86.78;101359.25;5055747;28;20815;-43
2021/12/25 05:50:33;;;;;;;5.73;5.33;;;;;;;-9.85;87.85;101360.78;5054717;28;20562;-42
2021/12/25 05:53:02;;;;;;;5.10;4.80;;;;;;;-9.85;87.76;101370.25;5059547;28;20479;-43
2021/12/25 05:55:30;;;;;;;5.10;4.80;;;;;;;-9.86;87.76;101369.44;5065408;28;20438;-42
2021/12/25 05:57:58;;;;;;;5.17;4.73;;;;;;;-9.87;87.80;101374.63;5074381;28;20826;-43
2021/12/25 06:00:26;;;;;;;4.93;4.73;;;;;;;-9.84;87.87;101371.94;5063022;28;20467;-43
2021/12/25 06:02:53;;;;;;;5.93;5.53;;;;;;;-9.82;87.63;101373.56;5066181;28;20471;-43
2021/12/25 06:05:21;;;;;;;7.60;5.83;;;;;;;-9.81;87.35;101374.41;5071378;28;20472;-43
2021/12/25 06:07:50;;;;;;;5.67;5.47;;;;;;;-9.80;87.11;101374.38;5065029;28;20453;-46
2021/12/25 06:10:19;;;;;;;5.70;5.40;;;;;;;-9.79;86.82;101370.03;5061660;28;20462;-44
2021/12/25 06:12:47;;;;;;;5.80;5.40;;;;;;;-9.81;86.47;101377.00;5062038;28;20554;-44
2021/12/25 06:15:18;;;;;;;6.13;5.73;;;;;;;-9.82;86.39;101371.00;5067218;28;20436;-45
2021/12/25 06:17:46;;;;;;;5.70;5.50;;;;;;;-9.81;86.31;101370.09;5054339;28;20530;-43
2021/12/25 06:20:14;;;;;;;7.43;6.60;;;;;;;-9.82;85.91;101364.97;5062558;28;20457;-45
2021/12/25 06:22:42;;;;;;;5.27;5.07;;;;;;;-9.86;85.56;101358.25;5057460;28;20486;-42
2021/12/25 06:25:11;;;;;;;11.67;4.80;;;;;;;-9.88;85.38;101360.88;5056646;28;20474;-46
2021/12/25 06:27:40;;;;;;;5.80;5.50;;;;;;;-9.89;85.42;101366.97;5056300;28;20442;-49
2021/12/25 06:30:09;;;;;;;5.20;5.00;;;;;;;-9.91;85.61;101368.72;5062962;28;20452;-43
2021/12/25 06:32:37;;;;;;;6.27;5.90;;;;;;;-9.90;85.53;101377.31;5067424;28;20458;-46
2021/12/25 06:35:05;;;;;;;6.23;5.73;;;;;;;-9.94;85.23;101373.13;5064128;28;20937;-48
2021/12/25 06:37:33;;;;;;;6.47;5.97;;;;;;;-9.92;85.91;101373.94;5070417;28;20449;-45
2021/12/25 06:40:01;;;;;;;6.50;5.90;;;;;;;-9.95;85.67;101374.91;5071233;28;20458;-50
2021/12/25 06:42:28;;;;;;;6.57;6.17;;;;;;;-9.94;86.12;101379.16;5071007;28;20895;-47
2021/12/25 06:44:57;;;;;;;6.20;5.90;;;;;;;-9.94;86.31;101376.56;5057523;28;20471;-47
2021/12/25 06:47:25;;;;;;;6.30;5.83;;;;;;;-9.95;86.71;101382.66;5051935;28;20497;-46
2021/12/25 06:49:52;;;;;;;7.33;6.67;;;;;;;-9.91;87.01;101381.63;5052055;28;20518;-44
2021/12/25 06:52:20;;;;;;;7.93;6.60;;;;;;;-9.90;86.83;101375.59;5044391;28;20455;-47
2021/12/25 06:54:48;;;;;;;7.93;6.97;;;;;;;-9.89;86.92;101366.09;5053481;28;20428;-48
2021/12/25 06:57:17;;;;;;;9.20;8.20;;;;;;;-9.93;86.86;101378.25;5050888;28;20924;-46
2021/12/25 06:59:45;;;;;;;23.47;14.70;;;;;;;-9.94;86.54;101381.72;5043157;28;20440;-42
2021/12/25 07:02:14;;;;;;;52.30;28.27;;;;;;;-9.93;86.67;101375.69;5052134;28;20459;-45
2021/12/25 07:04:42;;;;;;;20.87;15.50;;;;;;;-9.95;86.47;101379.22;5051360;28;20711;-48
2021/12/25 07:07:09;;;;;;;14.03;12.73;;;;;;;-9.96;86.79;101377.53;5062800;28;20435;-44
2021/12/25 07:09:37;;;;;;;9.73;8.70;;;;;;;-9.95;86.71;101381.78;5054816;28;20796;-44
2021/12/25 07:12:05;;;;;;;13.07;11.00;;;;;;;-9.95;87.18;101384.38;5057424;28;20493;-47
2021/12/25 07:14:34;;;;;;;9.37;8.50;;;;;;;-9.94;87.08;101376.56;5068362;28;20959;-45
2021/12/25 07:17:01;;;;;;;7.63;7.03;;;;;;;-9.90;87.07;101372.16;5060745;28;20529;-46
2021/12/25 07:19:30;;;;;;;7.70;7.20;;;;;;;-9.87;87.51;101372.03;5053591;28;20434;-44
2021/12/25 07:21:58;;;;;;;7.23;6.70;;;;;;;-9.85;87.51;101371.09;5059129;28;20465;-46
2021/12/25 07:24:25;;;;;;;6.67;6.27;;;;;;;-9.81;87.24;101388.16;5056132;28;20485;-42
2021/12/25 07:26:53;;;;;;;6.93;6.40;;;;;;;-9.79;86.80;101394.09;5050788;28;20916;-43
2021/12/25 07:29:21;;;;;;;9.00;7.70;;;;;;;-9.75;87.07;101398.28;5049552;28;20513;-44
2021/12/25 07:31:49;;;;;;;6.30;5.90;;;;;;;-9.72;86.82;101384.44;5048593;28;20879;-45
2021/12/25 07:34:17;;;;;;;6.57;6.17;;;;;;;-9.69;86.85;101382.59;5049386;28;20427;-45
2021/12/25 07:36:45;;;;;;;6.30;5.80;;;;;;;-9.68;86.58;101386.88;5049517;28;20431;-43
2021/12/25 07:39:13;;;;;;;7.00;6.50;;;;;;;-9.64;86.59;101379.84;5060655;28;20438;-47
2021/12/25 07:41:42;;;;;;;8.13;7.20;;;;;;;-9.61;86.29;101383.16;5069851;28;20457;-44
2021/12/25 07:44:09;;;;;;;6.47;6.17;;;;;;;-9.59;86.56;101394.25;5067684;28;20486;-47
2021/12/25 07:46:38;;;;;;;8.93;7.53;;;;;;;-9.56;86.30;101385.59;5059429;28;20436;-45
2021/12/25 07:49:06;;;;;;;6.20;5.80;;;;;;;-9.52;86.48;101388.88;5052145;28;20447;-47
2021/12/25 07:51:33;;;;;;;8.63;5.90;;;;;;;-9.45;86.33;101374.88;5048995;28;20463;-47
2021/12/25 07:54:02;;;;;;;7.30;6.30;;;;;;;-9.40;86.29;101373.81;5049094;28;20439;-45
2021/12/25 07:56:30;;;;;;;8.30;6.07;;;;;;;-9.36;86.24;101372.81;5064864;28;20427;-46
2021/12/25 07:58:57;;;;;;;6.20;5.73;;;;;;;-9.32;86.33;101366.66;5066291;28;20435;-48
2021/12/25 08:01:25;;;;;;;6.40;5.80;;;;;;;-9.25;86.30;101377.56;5050870;28;20463;-47
2021/12/25 08:03:53;;;;;;;6.33;6.00;;;;;;;-9.23;86.11;101386.97;5054241;28;20496;-44
2021/12/25 08:06:20;;;;;;;7.00;6.43;;;;;;;-9.16;86.24;101385.81;5051901;28;20468;-44
2021/12/25 08:08:50;;;;;;;8.90;8.00;;;;;;;-9.10;86.08;101384.75;5070220;28;20521;-43
2021/12/25 08:11:19;;;;;;;7.90;7.10;;;;;;;-9.01;86.28;101387.00;5060203;28;20550;-45
2021/12/25 08:13:49;;;;;;;7.37;6.77;;;;;;;-8.95;86.11;101386.78;5064251;28;20446;-46
2021/12/25 08:16:17;;;;;;;6.13;5.83;;;;;;;-8.87;86.73;101397.69;5064195;28;20435;-44
2021/12/25 08:18:44;;;;;;;5.93;5.63;;;;;;;-8.80;86.32;101382.75;5054900;28;20451;-43
2021/12/25 08:21:13;;;;;;;5.37;5.07;;;;;;;-8.71;86.88;101377.22;5071551;28;21098;-47
2021/12/25 08:23:40;;;;;;;6.20;5.90;;;;;;;-8.61;87.49;101391.50;5062776;28;20491;-42
2021/12/25 08:26:09;;;;;;;5.80;5.40;;;;;;;-8.52;87.88;101397.16;5065979;28;20831;-45
2021/12/25 08:28:38;;;;;;;5.53;5.33;;;;;;;-8.43;87.77;101389.03;5062255;28;20439;-43
2021/12/25 08:31:06;;;;;;;6.63;6.23;;;;;;;-8.31;88.39;101392.88;5065539;28;20952;-45
2021/12/25 08:33:33;;;;;;;8.07;6.70;;;;;;;-8.24;87.93;101394.28;5072083;28;20705;-47
2021/12/25 08:36:01;;;;;;;5.60;5.40;;;;;;;-8.17;88.13;101395.72;5061398;28;20878;-43
2021/12/25 08:38:29;;;;;;;6.10;5.70;;;;;;;-8.08;87.93;101397.94;5069885;28;20529;-46
2021/12/25 08:40:56;;;;;;;6.37;5.93;;;;;;;-8.00;87.85;101395.84;5067527;28;20462;-46
2021/12/25 08:43:25;;;;;;;6.90;6.50;;;;;;;-7.92;87.79;101398.16;5054209;28;20550;-49
2021/12/25 08:46:03;;;;;;;6.47;6.17;;;;;;;-7.85;87.45;101397.81;5056229;28;20856;-46
2021/12/25 08:48:31;;;;;;;7.77;6.43;;;;;;;-7.77;87.24;101407.03;5063656;28;20439;-48
2021/12/25 08:51:00;;;;;;;11.03;9.10;;;;;;;-7.70;87.54;101400.66;5051159;28;20549;-43
2021/12/25 08:53:29;;;;;;;7.80;7.30;;;;;;;-7.60;87.59;101399.38;5064691;28;20454;-44
2021/12/25 08:55:57;;;;;;;6.47;6.07;;;;;;;-7.50;87.12;101400.66;5056858;28;20434;-44
2021/12/25 08:58:26;;;;;;;6.20;5.80;;;;;;;-7.42;86.71;101398.59;5057678;28;20439;-46
2021/12/25 09:00:57;;;;;;;6.40;6.00;;;;;;;-7.30;86.80;101398.03;5055951;28;20459;-44
2021/12/25 09:03:26;;;;;;;6.73;6.17;;;;;;;-7.21;86.65;101404.56;5068915;28;20458;-50
2021/12/25 09:05:55;;;;;;;5.50;5.30;;;;;;;-7.11;86.16;101401.53;5072943;28;20473;-46
2021/12/25 09:08:23;;;;;;;6.03;5.50;;;;;;;-7.00;86.11;101401.88;5057581;28;20440;-45
2021/12/25 09:10:51;;;;;;;6.53;6.03;;;;;;;-6.87;85.78;101402.16;5060694;28;20460;-43
2021/12/25 09:13:19;;;;;;;6.60;6.20;;;;;;;-6.76;85.81;101408.53;5059937;28;20464;-44
2021/12/25 09:15:47;;;;;;;6.57;6.00;;;;;;;-6.65;85.02;101408.03;5063287;28;20984;-44
2021/12/25 09:18:16;;;;;;;8.23;7.70;;;;;;;-6.52;85.44;101408.28;5052492;28;20428;-43
2021/12/25 09:20:43;;;;;;;7.10;6.70;;;;;;;-6.39;85.16;101399.03;5053307;28;20470;-47
2021/12/25 09:23:11;;;;;;;7.33;6.53;;;;;;;-6.29;84.97;101398.50;5054804;28;20460;-44
2021/12/25 09:25:39;;;;;;;6.60;6.23;;;;;;;-6.19;85.01;101394.56;5067501;28;20500;-46
2021/12/25 09:28:06;;;;;;;6.70;6.40;;;;;;;-6.06;85.02;101396.56;5059276;28;21026;-44
2021/12/25 09:30:36;;;;;;;7.53;7.07;;;;;;;-5.94;84.53;101403.75;5066609;28;20483;-47
2021/12/25 09:33:04;;;;;;;7.50;7.10;;;;;;;-5.82;84.16;101398.72;5071932;28;20508;-46
2021/12/25 09:35:33;;;;;;;7.50;6.90;;;;;;;-5.71;84.07;101401.66;5062495;28;20426;-49
2021/12/25 09:38:01;;;;;;;6.70;6.40;;;;;;;-5.61;83.76;101400.25;5058475;28;20454;-44
2021/12/25 09:40:28;;;;;;;7.33;6.90;;;;;;;-5.54;81.77;101405.13;5051532;28;20451;-47
2021/12/25 09:42:57;;;;;;;7.00;6.60;;;;;;;-5.46;81.75;101397.78;5062761;28;20961;-44
2021/12/25 09:45:25;;;;;;;6.93;6.60;;;;;;;-5.34;82.05;101387.59;5065398;28;20553;-46
2021/12/25 09:47:52;;;;;;;7.97;7.23;;;;;;;-5.22;81.72;101394.75;5055914;28;20442;-46
2021/12/25 09:50:20;;;;;;;6.33;6.03;;;;;;;-5.12;81.71;101403.78;5071805;28;20808;-43
2021/12/25 09:52:49;;;;;;;7.90;7.40;;;;;;;-5.02;80.79;101404.13;5064166;28;20461;-45
2021/12/25 09:55:18;;;;;;;6.80;6.50;;;;;;;-4.93;80.71;101401.03;5065803;28;20530;-46
2021/12/25 09:57:46;;;;;;;6.60;6.10;;;;;;;-4.84;80.44;101399.69;5067529;28;20817;-45
2021/12/25 10:00:17;;;;;;;6.13;5.60;;;;;;;-4.74;80.43;101403.47;5051016;28;20577;-48
2021/12/25 10:02:47;;;;;;;6.57;6.07;;;;;;;-4.63;80.10;101406.34;5060227;28;20462;-43
2021/12/25 10:05:24;;;;;;;6.60;6.20;;;;;;;-4.54;79.75;101409.25;5065755;28;20469;-47
2021/12/25 10:08:03;;;;;;;7.03;6.53;;;;;;;-4.44;79.36;101408.75;5056519;28;20439;-46
2021/12/25 10:10:41;;;;;;;5.70;5.37;;;;;;;-4.35;79.14;101410.84;5063545;28;20454;-47
2021/12/25 10:13:27;;;;;;;5.73;5.37;;;;;;;-4.24;79.23;101404.13;5031192;28;20466;-46
2021/12/25 10:15:57;;;;;;;6.00;5.60;;;;;;;-4.14;78.69;101410.50;5054351;28;20423;-45
2021/12/25 10:18:28;;;;;;;5.40;5.20;;;;;;;-4.04;78.32;101406.44;5071630;28;20468;-44
2021/12/25 10:20:56;;;;;;;6.00;5.70;;;;;;;-3.96;77.93;101406.00;5057407;28;20975;-47
2021/12/25 10:23:29;;;;;;;6.30;6.10;;;;;;;-3.86;77.84;101408.91;5054254;28;20454;-43
2021/12/25 10:25:59;;;;;;;6.23;5.83;;;;;;;-3.76;77.69;101407.47;5059121;28;20565;-49
2021/12/25 10:28:33;;;;;;;6.23;5.80;;;;;;;-3.65;77.69;101405.91;5064492;28;20431;-45
2021/12/25 10:31:03;;;;;;;5.67;5.47;;;;;;;-3.54;77.65;101397.44;5059522;28;20447;-45
2021/12/25 10:33:35;;;;;;;5.83;5.63;;;;;;;-3.48;76.75;101400.53;5069924;28;20465;-47
2021/12/25 10:36:06;;;;;;;7.93;7.13;;;;;;;-3.39;75.99;101399.16;5053290;28;20510;-46
2021/12/25 10:38:36;;;;;;;6.07;5.60;;;;;;;-3.29;75.90;101405.50;5062230;28;20821;-44
2021/12/25 10:41:17;;;;;;;6.87;6.37;;;;;;;-3.22;75.36;101398.13;5063551;28;20477;-46
2021/12/25 10:43:47;;;;;;;6.13;5.80;;;;;;;-3.12;75.34;101402.72;5069985;28;20464;-44
2021/12/25 10:46:14;;;;;;;6.17;5.77;;;;;;;-3.03;75.13;101407.38;5063919;28;20497;-45
2021/12/25 10:48:42;;;;;;;5.57;5.27;;;;;;;-2.96;75.26;101408.69;5054294;28;20447;-43
2021/12/25 10:51:27;;;;;;;6.40;6.10;;;;;;;-2.89;73.71;101404.75;5052252;28;20462;-44
2021/12/25 10:53:57;;;;;;;5.70;5.17;;;;;;;-2.83;74.06;101409.56;5054484;28;20443;-44
2021/12/25 10:56:34;;;;;;;7.63;7.13;;;;;;;-2.73;73.74;101409.84;5054601;28;20426;-46
2021/12/25 10:59:04;;;;;;;5.30;5.10;;;;;;;-2.64;73.45;101398.00;5058835;28;20435;-46
2021/12/25 11:01:38;;;;;;;5.00;4.90;;;;;;;-2.59;72.86;101403.75;5059666;28;20455;-47
2021/12/25 11:04:08;;;;;;;5.90;5.60;;;;;;;-2.52;72.97;101402.44;5061240;28;20414;-46
2021/12/25 11:06:42;;;;;;;5.57;5.27;;;;;;;-2.45;72.48;101398.53;5067268;28;20484;-47
2021/12/25 11:09:11;;;;;;;5.70;5.40;;;;;;;-2.40;71.60;101396.44;5067246;28;20805;-46
2021/12/25 11:11:40;;;;;;;6.10;5.60;;;;;;;-2.30;72.82;101402.78;5054933;28;20819;-44
2021/12/25 11:14:08;;;;;;;6.23;5.83;;;;;;;-2.27;72.59;101403.38;5067816;28;20456;-43
2021/12/25 11:16:39;;;;;;;5.63;5.23;;;;;;;-2.17;72.17;101413.25;5052482;28;20427;-42
2021/12/25 11:19:10;;;;;;;5.40;5.10;;;;;;;-2.14;72.01;101403.44;5052837;28;20494;-43
2021/12/25 11:21:55;;;;;;;6.03;5.40;;;;;;;-2.13;71.08;101405.13;5050555;28;20984;-46
2021/12/25 11:24:26;;;;;;;5.60;5.30;;;;;;;-2.10;69.80;101404.09;5048882;28;20431;-43
2021/12/25 11:26:56;;;;;;;5.57;5.17;;;;;;;-2.07;69.34;101401.28;5063353;28;20557;-47
2021/12/25 11:29:31;;;;;;;5.23;4.83;;;;;;;-1.97;69.73;101399.75;5059863;28;20471;-44
2021/12/25 11:32:00;;;;;;;5.20;4.90;;;;;;;-1.97;67.68;101403.16;5058965;28;20460;-48
2021/12/25 11:34:28;;;;;;;4.83;4.40;;;;;;;-1.89;67.48;101408.75;5061287;28;20442;-46
2021/12/25 11:37:00;;;;;;;5.23;5.03;;;;;;;-1.84;66.81;101400.59;5055253;28;20435;-43
2021/12/25 11:39:31;;;;;;;4.80;4.50;;;;;;;-1.77;66.99;101414.94;5065738;28;20808;-45
2021/12/25 11:42:04;;;;;;;5.50;5.30;;;;;;;-1.76;66.22;101407.00;5050066;28;20457;-47
2021/12/25 11:44:35;;;;;;;5.30;5.00;;;;;;;-1.72;66.18;101407.63;5069643;28;20946;-44
2021/12/25 11:47:04;;;;;;;5.47;4.70;;;;;;;-1.67;65.42;101409.00;5070096;28;20484;-44
2021/12/25 11:49:32;;;;;;;5.90;4.80;;;;;;;-1.63;65.53;101408.78;5069437;28;20438;-45
2021/12/25 11:52:13;;;;;;;4.83;4.63;;;;;;;-1.59;65.23;101407.66;5069814;28;20466;-45
2021/12/25 11:55:01;;;;;;;5.40;5.03;;;;;;;-1.56;65.45;101405.69;5069956;28;20431;-45
2021/12/25 11:57:49;;;;;;;5.53;5.33;;;;;;;-1.48;65.64;101413.84;5070494;28;20437;-45
2021/12/25 12:00:39;;;;;;;5.00;4.80;;;;;;;-1.40;66.21;101408.06;5069481;28;20836;-44
2021/12/25 12:03:07;;;;;;;5.60;5.30;;;;;;;-1.37;66.44;101411.31;5069449;28;20839;-44
2021/12/25 12:05:37;;;;;;;5.70;5.40;;;;;;;-1.36;66.04;101410.41;5069863;28;20430;-44
2021/12/25 12:08:09;;;;;;;6.00;5.60;;;;;;;-1.35;66.69;101396.38;5069940;28;20574;-43
2021/12/25 12:10:56;;;;;;;6.20;5.90;;;;;;;-1.36;66.37;101405.16;5069737;28;20456;-43
2021/12/25 12:13:26;;;;;;;5.40;5.20;;;;;;;-1.37;66.27;101400.88;5068767;28;20450;-47
2021/12/25 12:15:56;;;;;;;5.50;5.20;;;;;;;-1.38;66.18;101401.81;5066552;28;20432;-45
2021/12/25 12:18:37;;;;;;;5.90;5.50;;;;;;;-1.37;66.07;101400.03;5049838;28;20438;-43
2021/12/25 12:21:10;;;;;;;5.00;4.70;;;;;;;-1.43;65.30;101405.66;5049789;28;20442;-45
2021/12/25 12:23:48;;;;;;;5.57;5.07;;;;;;;-1.53;65.43;101394.16;5049163;28;20542;-43
2021/12/25 12:26:50;;;;;;;5.87;5.30;;;;;;;-1.45;66.23;101399.72;5049740;28;20932;-45
2021/12/25 12:29:46;;;;;;;5.13;4.73;;;;;;;-1.49;65.73;101395.66;5049319;28;20794;-44